Modern Express — H9DG — position and weather

sailwx.info

Track history (hours):
 
Tides and Currents Weather Stations Pressure Air Temp Water Temp Dewpoint Dewpoint Depression Visibility Wind Speed Wind Dir Waves Ship Positions

Modern Express

Last reported at 2015-Aug-31 12:33 UTC. Time now 2015-Aug-31 13:24 UTC.
Position N 51°16' E 004°13'.

Length 164 m; beam 28 m.

Type: Cargo ship. MMSI: 356187000.

Date/timePositionNaut miles runAvg speedWind from/ knotsBaromVisibWave heightAir tempDewpointWater temp
2015-Aug-31 12:33N 51°16' E 004°13'0 0.0
2015-Aug-31 11:33N 51°16' E 004°13'0 0.0
2015-Aug-31 10:33N 51°16' E 004°13'0 0.0
2015-Aug-31 09:33N 51°16' E 004°13'0 0.0
2015-Aug-31 08:33N 51°16' E 004°13'0 0.0
2015-Aug-31 07:33N 51°16' E 004°13'0 0.0
2015-Aug-31 06:33N 51°16' E 004°13'0 0.0
2015-Aug-31 05:33N 51°16' E 004°13'0 0.0
2015-Aug-31 04:33N 51°16' E 004°13'0 0.0
2015-Aug-31 03:33N 51°16' E 004°13'0 0.0
2015-Aug-31 02:33N 51°16' E 004°13'0 0.0
2015-Aug-31 01:33N 51°16' E 004°13'0 0.0
2015-Aug-31 00:33N 51°16' E 004°13'0 0.0
2015-Aug-30 23:33N 51°16' E 004°13'0 0.0
2015-Aug-30 22:33N 51°16' E 004°13'0 0.0
2015-Aug-30 21:33N 51°16' E 004°13'0 0.0
2015-Aug-30 20:33N 51°16' E 004°13'0 0.0
2015-Aug-30 19:33N 51°16' E 004°13'0 0.0
2015-Aug-30 18:33N 51°16' E 004°13'0 0.0
2015-Aug-30 17:33N 51°16' E 004°13'0 0.0
2015-Aug-30 16:33N 51°16' E 004°13'0 0.0
2015-Aug-30 15:33N 51°16' E 004°13'0 0.0
2015-Aug-30 14:33N 51°16' E 004°13'0 0.0
2015-Aug-30 13:33N 51°16' E 004°13'0 0.0
2015-Aug-30 12:30N 51°16' E 004°13'0 0.0
2015-Aug-30 11:30N 51°16' E 004°13'0 0.0
2015-Aug-30 10:33N 51°16' E 004°13'0 0.0
2015-Aug-30 09:33N 51°16' E 004°13'0 0.0
2015-Aug-30 08:33N 51°16' E 004°13'0 0.0
2015-Aug-30 07:33N 51°16' E 004°13'0 0.0
2015-Aug-30 06:33N 51°16' E 004°13'0 0.0
2015-Aug-30 05:33N 51°16' E 004°13'0 0.0
2015-Aug-30 04:33N 51°16' E 004°13'0 0.0
2015-Aug-30 03:33N 51°16' E 004°13'0 0.0
2015-Aug-30 02:33N 51°16' E 004°13'0 0.0
2015-Aug-30 01:33N 51°16' E 004°13'0 0.0
2015-Aug-30 00:33N 51°16' E 004°13'2 1.8
2015-Aug-29 23:34N 51°16' E 004°16'0 0.5
2015-Aug-29 22:33N 51°16' E 004°17'4 3.7
2015-Aug-29 21:33N 51°20' E 004°16'9 8.6
2015-Aug-29 20:33N 51°22' E 004°03'6 6.2
2015-Aug-29 19:33N 51°21' E 003°54'9 8.6
2015-Aug-29 18:33N 51°25' E 003°41'10 9.5
2015-Aug-29 17:33N 51°25' E 003°26'1212.3
2015-Aug-29 16:33N 51°24' E 003°07'1413.6
2015-Aug-29 15:33N 51°24' E 002°45'4 4.3
2015-Aug-29 14:33N 51°24' E 002°38'0 0.0
2015-Aug-29 13:33N 51°24' E 002°38'0 0.0
2015-Aug-29 12:33N 51°24' E 002°38'0 0.0
2015-Aug-29 11:33N 51°24' E 002°38'0 0.0
2015-Aug-29 10:33N 51°24' E 002°38'0 0.0
2015-Aug-29 09:34N 51°24' E 002°38'7 7.2
2015-Aug-29 08:33N 51°21' E 002°27'1313.0
2015-Aug-29 07:33N 51°14' E 002°10'1312.5
2015-Aug-29 06:33N 51°09' E 001°52'1211.9
2015-Aug-29 05:33N 51°01' E 001°37'1212.2
2015-Aug-29 04:33N 50°51' E 001°26'1613.3
2015-Aug-29 03:22N 50°37' E 001°14'1413.9
2015-Aug-29 02:23N 50°29' E 000°57'6112.7
2015-Aug-28 21:33N 49°44' W 000°09'1514.9
2015-Aug-28 20:33N 49°31' E 000°01'7 6.6
2015-Aug-28 19:33N 49°29' E 000°10'1 1.2
2015-Aug-28 18:33N 49°28' E 000°12'0 0.0
2015-Aug-28 17:33N 49°28' E 000°12'0 0.0
2015-Aug-28 16:34N 49°28' E 000°12'0 0.0
2015-Aug-28 15:33N 49°28' E 000°12'0 0.0
2015-Aug-28 14:33N 49°28' E 000°12'0 0.0
2015-Aug-28 13:33N 49°28' E 000°12'0 0.0
2015-Aug-28 12:33N 49°28' E 000°12'0 0.0
2015-Aug-28 11:33N 49°28' E 000°12'1 1.1
2015-Aug-28 10:33N 49°29' E 000°10'4 3.9
2015-Aug-28 09:33N 49°29' E 000°04'1313.1
2015-Aug-28 08:34N 49°34' W 000°14'1514.6
2015-Aug-28 07:33N 49°40' W 000°35'  
2015-Aug-25 22:13N 39°05' W 010°37'1114.8
2015-Aug-25 21:30N 38°54' W 010°37'1514.8
2015-Aug-25 20:31N 38°40' W 010°38'1814.7
2015-Aug-25 19:17N 38°22' W 010°40'1214.5
2015-Aug-25 18:29N 38°10' W 010°40'1314.2
2015-Aug-25 17:33N 37°57' W 010°41'1414.3
2015-Aug-25 16:33N 37°42' W 010°43'1414.6
2015-Aug-25 15:34N 37°28' W 010°44'1514.7
2015-Aug-25 14:33N 37°13' W 010°45'1514.6
2015-Aug-25 13:33N 36°59' W 010°46'1514.7
2015-Aug-25 12:32N 36°44' W 010°47'1514.6
2015-Aug-25 11:32N 36°29' W 010°48'  
Track history (hours):
 
Tides and Currents Weather Stations Pressure Air Temp Water Temp Dewpoint Dewpoint Depression Visibility Wind Speed Wind Dir Waves Ship Positions

Modern Express

Last reported at 2015-Aug-31 12:33 UTC. Time now 2015-Aug-31 13:24 UTC.
Position N 51°16' E 004°13'.

Length 164 m; beam 28 m.

Type: Cargo ship. MMSI: 356187000.

Date/timePositionNaut miles runAvg speedWind from/ knotsBaromVisibWave heightAir tempDewpointWater temp
2015-Aug-31 12:33N 51°16' E 004°13'0 0.0
2015-Aug-31 11:33N 51°16' E 004°13'0 0.0
2015-Aug-31 10:33N 51°16' E 004°13'0 0.0
2015-Aug-31 09:33N 51°16' E 004°13'0 0.0
2015-Aug-31 08:33N 51°16' E 004°13'0 0.0
2015-Aug-31 07:33N 51°16' E 004°13'0 0.0
2015-Aug-31 06:33N 51°16' E 004°13'0 0.0
2015-Aug-31 05:33N 51°16' E 004°13'0 0.0
2015-Aug-31 04:33N 51°16' E 004°13'0 0.0
2015-Aug-31 03:33N 51°16' E 004°13'0 0.0
2015-Aug-31 02:33N 51°16' E 004°13'0 0.0
2015-Aug-31 01:33N 51°16' E 004°13'0 0.0
2015-Aug-31 00:33N 51°16' E 004°13'0 0.0
2015-Aug-30 23:33N 51°16' E 004°13'0 0.0
2015-Aug-30 22:33N 51°16' E 004°13'0 0.0
2015-Aug-30 21:33N 51°16' E 004°13'0 0.0
2015-Aug-30 20:33N 51°16' E 004°13'0 0.0
2015-Aug-30 19:33N 51°16' E 004°13'0 0.0
2015-Aug-30 18:33N 51°16' E 004°13'0 0.0
2015-Aug-30 17:33N 51°16' E 004°13'0 0.0
2015-Aug-30 16:33N 51°16' E 004°13'0 0.0
2015-Aug-30 15:33N 51°16' E 004°13'0 0.0
2015-Aug-30 14:33N 51°16' E 004°13'0 0.0
2015-Aug-30 13:33N 51°16' E 004°13'0 0.0
2015-Aug-30 12:30N 51°16' E 004°13'0 0.0
2015-Aug-30 11:30N 51°16' E 004°13'0 0.0
2015-Aug-30 10:33N 51°16' E 004°13'0 0.0
2015-Aug-30 09:33N 51°16' E 004°13'0 0.0
2015-Aug-30 08:33N 51°16' E 004°13'0 0.0
2015-Aug-30 07:33N 51°16' E 004°13'0 0.0
2015-Aug-30 06:33N 51°16' E 004°13'0 0.0
2015-Aug-30 05:33N 51°16' E 004°13'0 0.0
2015-Aug-30 04:33N 51°16' E 004°13'0 0.0
2015-Aug-30 03:33N 51°16' E 004°13'0 0.0
2015-Aug-30 02:33N 51°16' E 004°13'0 0.0
2015-Aug-30 01:33N 51°16' E 004°13'0 0.0
2015-Aug-30 00:33N 51°16' E 004°13'2 1.8
2015-Aug-29 23:34N 51°16' E 004°16'0 0.5
2015-Aug-29 22:33N 51°16' E 004°17'4 3.7
2015-Aug-29 21:33N 51°20' E 004°16'9 8.6
2015-Aug-29 20:33N 51°22' E 004°03'6 6.2
2015-Aug-29 19:33N 51°21' E 003°54'9 8.6
2015-Aug-29 18:33N 51°25' E 003°41'10 9.5
2015-Aug-29 17:33N 51°25' E 003°26'1212.3
2015-Aug-29 16:33N 51°24' E 003°07'1413.6
2015-Aug-29 15:33N 51°24' E 002°45'4 4.3
2015-Aug-29 14:33N 51°24' E 002°38'0 0.0
2015-Aug-29 13:33N 51°24' E 002°38'0 0.0
2015-Aug-29 12:33N 51°24' E 002°38'0 0.0
2015-Aug-29 11:33N 51°24' E 002°38'0 0.0
2015-Aug-29 10:33N 51°24' E 002°38'0 0.0
2015-Aug-29 09:34N 51°24' E 002°38'7 7.2
2015-Aug-29 08:33N 51°21' E 002°27'1313.0
2015-Aug-29 07:33N 51°14' E 002°10'1312.5
2015-Aug-29 06:33N 51°09' E 001°52'1211.9
2015-Aug-29 05:33N 51°01' E 001°37'1212.2
2015-Aug-29 04:33N 50°51' E 001°26'1613.3
2015-Aug-29 03:22N 50°37' E 001°14'1413.9
2015-Aug-29 02:23N 50°29' E 000°57'6112.7
2015-Aug-28 21:33N 49°44' W 000°09'1514.9
2015-Aug-28 20:33N 49°31' E 000°01'7 6.6
2015-Aug-28 19:33N 49°29' E 000°10'1 1.2
2015-Aug-28 18:33N 49°28' E 000°12'0 0.0
2015-Aug-28 17:33N 49°28' E 000°12'0 0.0
2015-Aug-28 16:34N 49°28' E 000°12'0 0.0
2015-Aug-28 15:33N 49°28' E 000°12'0 0.0
2015-Aug-28 14:33N 49°28' E 000°12'0 0.0
2015-Aug-28 13:33N 49°28' E 000°12'0 0.0
2015-Aug-28 12:33N 49°28' E 000°12'0 0.0
2015-Aug-28 11:33N 49°28' E 000°12'1 1.1
2015-Aug-28 10:33N 49°29' E 000°10'4 3.9
2015-Aug-28 09:33N 49°29' E 000°04'1313.1
2015-Aug-28 08:34N 49°34' W 000°14'1514.6
2015-Aug-28 07:33N 49°40' W 000°35'  
2015-Aug-25 22:13N 39°05' W 010°37'1114.8
2015-Aug-25 21:30N 38°54' W 010°37'1514.8
2015-Aug-25 20:31N 38°40' W 010°38'1814.7
2015-Aug-25 19:17N 38°22' W 010°40'1214.5
2015-Aug-25 18:29N 38°10' W 010°40'1314.2
2015-Aug-25 17:33N 37°57' W 010°41'1414.3
2015-Aug-25 16:33N 37°42' W 010°43'1414.6
2015-Aug-25 15:34N 37°28' W 010°44'1514.7
2015-Aug-25 14:33N 37°13' W 010°45'1514.6
2015-Aug-25 13:33N 36°59' W 010°46'1514.7
2015-Aug-25 12:32N 36°44' W 010°47'1514.6
2015-Aug-25 11:32N 36°29' W 010°48'  

Dump ship's entire track history